Terminal Aerodrome Forecast
Issued by NWS

Current Version | Previous Version | Text Only | Print | Product List | Glossary On
Versions: 1 2 3 4 5 6 7 8 9 10 11 12 13 14 15 16 17 18 19 20 21 22 23 24 25 26 27 28 29 30 31 32 33 34 35 36 37 38 39 40 41 42 43 44 45
000
FTUS42 KGSP 240500 RRA
TAFHKY
TAF
KHKY 240542Z 2406/2506 00000KT P6SM BKN070
     FM241500 00000KT P6SM BKN060 PROB30 2415/2416 4SM TSRA BKN040CB
     FM241900 22006KT P6SM -SHRA VCTS BKN050CB
     FM242200 24005KT P6SM BKN050 PROB30 2422/2424 4SM TSRA BKN040CB
     FM250400 32003KT P6SM SCT045=

USA.gov is the U.S. government's official web portal to all federal, state and local government web resources and services.